sensor_id;sensor_type;location;lat;lon;timestamp;P1;durP1;ratioP1;P2;durP2;ratioP2
36799;SDS011;22752;51.960;5.886;2022-10-17T00:01:06;14.02;;;8.38;;
36799;SDS011;22752;51.960;5.886;2022-10-17T00:03:33;13.63;;;8.63;;
36799;SDS011;22752;51.960;5.886;2022-10-17T00:06:03;13.35;;;8.68;;
36799;SDS011;22752;51.960;5.886;2022-10-17T00:08:31;18.80;;;13.48;;
36799;SDS011;22752;51.960;5.886;2022-10-17T00:10:58;11.40;;;9.13;;
36799;SDS011;22752;51.960;5.886;2022-10-17T00:13:25;12.10;;;9.85;;
36799;SDS011;22752;51.960;5.886;2022-10-17T00:15:51;13.68;;;10.73;;
36799;SDS011;22752;51.960;5.886;2022-10-17T00:18:17;14.52;;;11.60;;
36799;SDS011;22752;51.960;5.886;2022-10-17T00:20:43;13.55;;;10.27;;
36799;SDS011;22752;51.960;5.886;2022-10-17T00:23:08;20.77;;;13.93;;
36799;SDS011;22752;51.960;5.886;2022-10-17T00:25:34;15.70;;;11.27;;
36799;SDS011;22752;51.960;5.886;2022-10-17T00:28:01;12.68;;;10.82;;
36799;SDS011;22752;51.960;5.886;2022-10-17T00:30:26;15.57;;;11.75;;
36799;SDS011;22752;51.960;5.886;2022-10-17T00:32:52;16.10;;;11.38;;
36799;SDS011;22752;51.960;5.886;2022-10-17T00:35:18;13.70;;;10.85;;
36799;SDS011;22752;51.960;5.886;2022-10-17T00:37:43;12.15;;;10.20;;
36799;SDS011;22752;51.960;5.886;2022-10-17T00:40:09;13.32;;;9.85;;
36799;SDS011;22752;51.960;5.886;2022-10-17T00:42:35;12.00;;;8.82;;
36799;SDS011;22752;51.960;5.886;2022-10-17T00:45:04;13.40;;;9.70;;
36799;SDS011;22752;51.960;5.886;2022-10-17T00:47:34;13.23;;;9.30;;
36799;SDS011;22752;51.960;5.886;2022-10-17T00:50:01;11.32;;;9.25;;
36799;SDS011;22752;51.960;5.886;2022-10-17T00:52:28;11.68;;;9.63;;
36799;SDS011;22752;51.960;5.886;2022-10-17T00:54:56;15.77;;;10.48;;
36799;SDS011;22752;51.960;5.886;2022-10-17T00:57:43;11.13;;;9.93;;
36799;SDS011;22752;51.960;5.886;2022-10-17T01:00:10;15.10;;;11.68;;
36799;SDS011;22752;51.960;5.886;2022-10-17T01:02:36;14.05;;;10.73;;
36799;SDS011;22752;51.960;5.886;2022-10-17T01:05:03;14.93;;;11.30;;
36799;SDS011;22752;51.960;5.886;2022-10-17T01:07:30;11.73;;;10.40;;
36799;SDS011;22752;51.960;5.886;2022-10-17T01:09:56;12.70;;;9.57;;
36799;SDS011;22752;51.960;5.886;2022-10-17T01:12:36;13.25;;;9.57;;
36799;SDS011;22752;51.960;5.886;2022-10-17T01:20:33;14.82;;;11.15;;
36799;SDS011;22752;51.960;5.886;2022-10-17T01:31:02;11.32;;;10.20;;
36799;SDS011;22752;51.960;5.886;2022-10-17T01:39:14;17.25;;;12.35;;
36799;SDS011;22752;51.960;5.886;2022-10-17T01:41:59;16.17;;;12.18;;
36799;SDS011;22752;51.960;5.886;2022-10-17T01:47:12;16.52;;;12.20;;
36799;SDS011;22752;51.960;5.886;2022-10-17T01:49:41;16.13;;;11.93;;
36799;SDS011;22752;51.960;5.886;2022-10-17T01:52:10;15.50;;;12.27;;
36799;SDS011;22752;51.960;5.886;2022-10-17T01:54:43;12.38;;;11.00;;
36799;SDS011;22752;51.960;5.886;2022-10-17T01:57:16;15.13;;;12.45;;
36799;SDS011;22752;51.960;5.886;2022-10-17T01:59:53;16.20;;;12.07;;
36799;SDS011;22752;51.960;5.886;2022-10-17T02:02:20;15.63;;;11.88;;
36799;SDS011;22752;51.960;5.886;2022-10-17T02:04:47;18.95;;;13.80;;
36799;SDS011;22752;51.960;5.886;2022-10-17T02:07:15;20.23;;;14.00;;
36799;SDS011;22752;51.960;5.886;2022-10-17T02:09:41;14.90;;;11.82;;
36799;SDS011;22752;51.960;5.886;2022-10-17T02:17:43;16.48;;;12.32;;
36799;SDS011;22752;51.960;5.886;2022-10-17T02:20:14;13.48;;;11.35;;
36799;SDS011;22752;51.960;5.886;2022-10-17T02:22:55;16.40;;;11.88;;
36799;SDS011;22752;51.960;5.886;2022-10-17T02:25:53;16.55;;;11.40;;
36799;SDS011;22752;51.960;5.886;2022-10-17T02:28:30;14.80;;;11.20;;
36799;SDS011;22752;51.960;5.886;2022-10-17T02:31:19;11.65;;;9.40;;
36799;SDS011;22752;51.960;5.886;2022-10-17T02:33:53;13.57;;;10.20;;
36799;SDS011;22752;51.960;5.886;2022-10-17T02:36:24;12.73;;;9.95;;
36799;SDS011;22752;51.960;5.886;2022-10-17T02:38:53;12.55;;;10.73;;
36799;SDS011;22752;51.960;5.886;2022-10-17T02:41:20;11.80;;;9.25;;
36799;SDS011;22752;51.960;5.886;2022-10-17T02:43:48;11.95;;;9.80;;
36799;SDS011;22752;51.960;5.886;2022-10-17T02:46:17;14.20;;;12.18;;
36799;SDS011;22752;51.960;5.886;2022-10-17T02:49:28;12.52;;;10.27;;
36799;SDS011;22752;51.960;5.886;2022-10-17T02:56:58;11.60;;;10.23;;
36799;SDS011;22752;51.960;5.886;2022-10-17T02:59:29;17.35;;;12.38;;
36799;SDS011;22752;51.960;5.886;2022-10-17T03:01:57;12.77;;;9.90;;
36799;SDS011;22752;51.960;5.886;2022-10-17T03:04:26;11.10;;;9.55;;
36799;SDS011;22752;51.960;5.886;2022-10-17T03:06:51;11.88;;;8.95;;
36799;SDS011;22752;51.960;5.886;2022-10-17T03:09:17;13.63;;;9.10;;
36799;SDS011;22752;51.960;5.886;2022-10-17T03:11:43;10.20;;;9.18;;
36799;SDS011;22752;51.960;5.886;2022-10-17T03:14:08;15.27;;;9.63;;
36799;SDS011;22752;51.960;5.886;2022-10-17T03:16:34;9.65;;;8.30;;
36799;SDS011;22752;51.960;5.886;2022-10-17T03:18:59;10.70;;;8.00;;
36799;SDS011;22752;51.960;5.886;2022-10-17T03:21:25;10.48;;;8.40;;
36799;SDS011;22752;51.960;5.886;2022-10-17T03:23:51;9.00;;;8.07;;
36799;SDS011;22752;51.960;5.886;2022-10-17T03:26:16;15.45;;;10.43;;
36799;SDS011;22752;51.960;5.886;2022-10-17T03:28:42;12.13;;;9.75;;
36799;SDS011;22752;51.960;5.886;2022-10-17T03:31:17;9.77;;;8.88;;
36799;SDS011;22752;51.960;5.886;2022-10-17T03:33:42;9.65;;;8.45;;
36799;SDS011;22752;51.960;5.886;2022-10-17T03:36:09;10.63;;;9.52;;
36799;SDS011;22752;51.960;5.886;2022-10-17T03:38:37;8.45;;;7.63;;
36799;SDS011;22752;51.960;5.886;2022-10-17T03:41:03;10.60;;;8.50;;
36799;SDS011;22752;51.960;5.886;2022-10-17T03:43:29;9.27;;;8.10;;
36799;SDS011;22752;51.960;5.886;2022-10-17T03:45:55;9.38;;;8.35;;
36799;SDS011;22752;51.960;5.886;2022-10-17T03:48:22;12.77;;;8.05;;
36799;SDS011;22752;51.960;5.886;2022-10-17T03:50:49;9.93;;;7.05;;
36799;SDS011;22752;51.960;5.886;2022-10-17T03:53:15;8.68;;;7.65;;
36799;SDS011;22752;51.960;5.886;2022-10-17T03:55:40;8.60;;;7.43;;
36799;SDS011;22752;51.960;5.886;2022-10-17T03:58:06;8.20;;;7.40;;
36799;SDS011;22752;51.960;5.886;2022-10-17T04:00:34;11.43;;;8.05;;
36799;SDS011;22752;51.960;5.886;2022-10-17T04:03:00;8.88;;;7.97;;
36799;SDS011;22752;51.960;5.886;2022-10-17T04:05:25;11.70;;;8.68;;
36799;SDS011;22752;51.960;5.886;2022-10-17T04:07:51;8.57;;;7.57;;
36799;SDS011;22752;51.960;5.886;2022-10-17T04:10:17;8.65;;;7.65;;
36799;SDS011;22752;51.960;5.886;2022-10-17T04:12:42;7.55;;;6.82;;
36799;SDS011;22752;51.960;5.886;2022-10-17T04:15:08;8.73;;;7.22;;
36799;SDS011;22752;51.960;5.886;2022-10-17T04:17:34;8.82;;;7.93;;
36799;SDS011;22752;51.960;5.886;2022-10-17T04:20:00;8.50;;;7.50;;
36799;SDS011;22752;51.960;5.886;2022-10-17T04:22:26;8.38;;;7.55;;
36799;SDS011;22752;51.960;5.886;2022-10-17T04:24:51;8.45;;;7.00;;
36799;SDS011;22752;51.960;5.886;2022-10-17T04:27:17;9.43;;;7.20;;
36799;SDS011;22752;51.960;5.886;2022-10-17T04:29:43;11.00;;;7.82;;
36799;SDS011;22752;51.960;5.886;2022-10-17T04:32:08;9.80;;;7.57;;
36799;SDS011;22752;51.960;5.886;2022-10-17T04:34:34;8.73;;;7.47;;
36799;SDS011;22752;51.960;5.886;2022-10-17T04:37:00;8.20;;;6.65;;
36799;SDS011;22752;51.960;5.886;2022-10-17T04:39:26;8.27;;;7.22;;
36799;SDS011;22752;51.960;5.886;2022-10-17T04:41:52;10.07;;;7.95;;
36799;SDS011;22752;51.960;5.886;2022-10-17T04:44:18;10.00;;;6.57;;
36799;SDS011;22752;51.960;5.886;2022-10-17T04:46:44;8.85;;;6.68;;
36799;SDS011;22752;51.960;5.886;2022-10-17T04:49:10;7.40;;;6.57;;
36799;SDS011;22752;51.960;5.886;2022-10-17T04:51:36;6.85;;;6.15;;
36799;SDS011;22752;51.960;5.886;2022-10-17T04:54:02;8.05;;;7.05;;
36799;SDS011;22752;51.960;5.886;2022-10-17T04:56:28;9.75;;;6.65;;
36799;SDS011;22752;51.960;5.886;2022-10-17T04:58:54;7.15;;;5.97;;
36799;SDS011;22752;51.960;5.886;2022-10-17T05:01:20;7.63;;;6.80;;
36799;SDS011;22752;51.960;5.886;2022-10-17T05:03:47;7.95;;;6.22;;
36799;SDS011;22752;51.960;5.886;2022-10-17T05:06:14;7.78;;;6.97;;
36799;SDS011;22752;51.960;5.886;2022-10-17T05:08:41;11.65;;;6.93;;
36799;SDS011;22752;51.960;5.886;2022-10-17T05:11:17;7.15;;;6.40;;
36799;SDS011;22752;51.960;5.886;2022-10-17T05:13:48;8.98;;;7.80;;
36799;SDS011;22752;51.960;5.886;2022-10-17T05:16:15;8.40;;;6.72;;
36799;SDS011;22752;51.960;5.886;2022-10-17T05:18:41;8.95;;;6.82;;
36799;SDS011;22752;51.960;5.886;2022-10-17T05:21:06;6.80;;;6.10;;
36799;SDS011;22752;51.960;5.886;2022-10-17T05:23:32;6.47;;;5.78;;
36799;SDS011;22752;51.960;5.886;2022-10-17T05:25:58;6.43;;;5.80;;
36799;SDS011;22752;51.960;5.886;2022-10-17T05:28:24;7.05;;;6.35;;
36799;SDS011;22752;51.960;5.886;2022-10-17T05:30:49;7.95;;;6.50;;
36799;SDS011;22752;51.960;5.886;2022-10-17T05:33:15;7.82;;;5.90;;
36799;SDS011;22752;51.960;5.886;2022-10-17T05:35:41;7.00;;;6.30;;
36799;SDS011;22752;51.960;5.886;2022-10-17T05:38:06;8.35;;;6.68;;
36799;SDS011;22752;51.960;5.886;2022-10-17T05:40:32;8.57;;;6.55;;
36799;SDS011;22752;51.960;5.886;2022-10-17T05:42:58;13.15;;;7.55;;
36799;SDS011;22752;51.960;5.886;2022-10-17T05:45:24;7.80;;;7.10;;
36799;SDS011;22752;51.960;5.886;2022-10-17T05:47:49;7.93;;;7.05;;
36799;SDS011;22752;51.960;5.886;2022-10-17T05:50:15;7.43;;;6.60;;
36799;SDS011;22752;51.960;5.886;2022-10-17T05:52:41;8.98;;;6.78;;
36799;SDS011;22752;51.960;5.886;2022-10-17T05:55:07;7.53;;;6.60;;
36799;SDS011;22752;51.960;5.886;2022-10-17T05:57:33;9.32;;;6.13;;
36799;SDS011;22752;51.960;5.886;2022-10-17T05:59:58;8.30;;;6.20;;
36799;SDS011;22752;51.960;5.886;2022-10-17T06:02:24;8.80;;;6.70;;
36799;SDS011;22752;51.960;5.886;2022-10-17T06:04:50;9.02;;;7.25;;
36799;SDS011;22752;51.960;5.886;2022-10-17T06:07:16;9.23;;;7.50;;
36799;SDS011;22752;51.960;5.886;2022-10-17T06:09:41;7.07;;;6.38;;
36799;SDS011;22752;51.960;5.886;2022-10-17T06:12:07;8.52;;;7.25;;
36799;SDS011;22752;51.960;5.886;2022-10-17T06:14:33;8.20;;;5.97;;
36799;SDS011;22752;51.960;5.886;2022-10-17T06:16:59;7.90;;;7.05;;
36799;SDS011;22752;51.960;5.886;2022-10-17T06:19:25;10.32;;;7.10;;
36799;SDS011;22752;51.960;5.886;2022-10-17T06:21:51;12.40;;;6.82;;
36799;SDS011;22752;51.960;5.886;2022-10-17T06:24:16;7.82;;;6.93;;
36799;SDS011;22752;51.960;5.886;2022-10-17T06:26:42;9.23;;;6.75;;
36799;SDS011;22752;51.960;5.886;2022-10-17T06:29:07;9.48;;;7.57;;
36799;SDS011;22752;51.960;5.886;2022-10-17T06:31:33;8.25;;;6.70;;
36799;SDS011;22752;51.960;5.886;2022-10-17T06:33:59;10.05;;;7.30;;
36799;SDS011;22752;51.960;5.886;2022-10-17T06:36:25;12.00;;;7.28;;
36799;SDS011;22752;51.960;5.886;2022-10-17T06:38:50;9.80;;;7.18;;
36799;SDS011;22752;51.960;5.886;2022-10-17T06:41:16;8.40;;;6.88;;
36799;SDS011;22752;51.960;5.886;2022-10-17T06:43:43;12.20;;;7.57;;
36799;SDS011;22752;51.960;5.886;2022-10-17T06:46:10;11.23;;;7.85;;
36799;SDS011;22752;51.960;5.886;2022-10-17T06:48:39;11.18;;;9.07;;
36799;SDS011;22752;51.960;5.886;2022-10-17T06:51:05;10.60;;;8.23;;
36799;SDS011;22752;51.960;5.886;2022-10-17T06:53:34;11.88;;;8.00;;
36799;SDS011;22752;51.960;5.886;2022-10-17T06:56:00;10.88;;;8.77;;
36799;SDS011;22752;51.960;5.886;2022-10-17T06:58:28;9.15;;;7.85;;
36799;SDS011;22752;51.960;5.886;2022-10-17T07:01:13;8.35;;;6.95;;
36799;SDS011;22752;51.960;5.886;2022-10-17T07:03:38;10.27;;;7.30;;
36799;SDS011;22752;51.960;5.886;2022-10-17T07:06:05;10.23;;;7.18;;
36799;SDS011;22752;51.960;5.886;2022-10-17T07:08:31;8.57;;;6.90;;
36799;SDS011;22752;51.960;5.886;2022-10-17T07:10:57;8.07;;;6.60;;
36799;SDS011;22752;51.960;5.886;2022-10-17T07:13:32;8.82;;;7.30;;
36799;SDS011;22752;51.960;5.886;2022-10-17T07:15:57;8.07;;;6.80;;
36799;SDS011;22752;51.960;5.886;2022-10-17T07:18:25;9.60;;;6.93;;
36799;SDS011;22752;51.960;5.886;2022-10-17T07:20:51;10.82;;;7.97;;
36799;SDS011;22752;51.960;5.886;2022-10-17T07:23:18;12.35;;;8.02;;
36799;SDS011;22752;51.960;5.886;2022-10-17T07:25:44;8.65;;;6.90;;
36799;SDS011;22752;51.960;5.886;2022-10-17T07:28:10;10.25;;;7.10;;
36799;SDS011;22752;51.960;5.886;2022-10-17T07:30:36;8.45;;;7.43;;
36799;SDS011;22752;51.960;5.886;2022-10-17T07:33:01;11.80;;;7.55;;
36799;SDS011;22752;51.960;5.886;2022-10-17T07:35:27;15.65;;;7.63;;
36799;SDS011;22752;51.960;5.886;2022-10-17T07:37:52;9.05;;;7.50;;
36799;SDS011;22752;51.960;5.886;2022-10-17T07:40:18;8.25;;;7.43;;
36799;SDS011;22752;51.960;5.886;2022-10-17T07:42:44;11.07;;;7.78;;
36799;SDS011;22752;51.960;5.886;2022-10-17T07:45:09;10.48;;;7.68;;
36799;SDS011;22752;51.960;5.886;2022-10-17T07:47:35;12.30;;;7.45;;
36799;SDS011;22752;51.960;5.886;2022-10-17T07:50:01;10.65;;;7.70;;
36799;SDS011;22752;51.960;5.886;2022-10-17T07:52:28;8.45;;;6.70;;
36799;SDS011;22752;51.960;5.886;2022-10-17T07:54:54;7.68;;;6.45;;
36799;SDS011;22752;51.960;5.886;2022-10-17T07:57:19;12.57;;;7.70;;
36799;SDS011;22752;51.960;5.886;2022-10-17T07:59:45;10.75;;;7.72;;
36799;SDS011;22752;51.960;5.886;2022-10-17T08:02:30;8.73;;;7.25;;
36799;SDS011;22752;51.960;5.886;2022-10-17T08:04:55;9.48;;;7.05;;
36799;SDS011;22752;51.960;5.886;2022-10-17T08:07:21;8.70;;;7.50;;
36799;SDS011;22752;51.960;5.886;2022-10-17T08:09:46;11.25;;;7.07;;
36799;SDS011;22752;51.960;5.886;2022-10-17T08:12:12;11.15;;;7.88;;
36799;SDS011;22752;51.960;5.886;2022-10-17T08:14:41;10.50;;;8.23;;
36799;SDS011;22752;51.960;5.886;2022-10-17T08:17:07;13.90;;;8.95;;
36799;SDS011;22752;51.960;5.886;2022-10-17T08:19:33;9.02;;;8.13;;
36799;SDS011;22752;51.960;5.886;2022-10-17T08:22:01;16.55;;;10.05;;
36799;SDS011;22752;51.960;5.886;2022-10-17T08:24:27;14.13;;;9.23;;
36799;SDS011;22752;51.960;5.886;2022-10-17T08:26:52;15.65;;;9.68;;
36799;SDS011;22752;51.960;5.886;2022-10-17T08:29:18;13.57;;;9.50;;
36799;SDS011;22752;51.960;5.886;2022-10-17T08:31:44;12.77;;;10.07;;
36799;SDS011;22752;51.960;5.886;2022-10-17T08:34:09;17.20;;;11.85;;
36799;SDS011;22752;51.960;5.886;2022-10-17T08:36:35;14.82;;;9.77;;
36799;SDS011;22752;51.960;5.886;2022-10-17T08:39:01;14.00;;;10.00;;
36799;SDS011;22752;51.960;5.886;2022-10-17T08:41:40;14.27;;;10.15;;
36799;SDS011;22752;51.960;5.886;2022-10-17T08:47:27;12.77;;;8.05;;
36799;SDS011;22752;51.960;5.886;2022-10-17T08:50:05;12.88;;;9.55;;
36799;SDS011;22752;51.960;5.886;2022-10-17T08:55:16;14.63;;;11.00;;
36799;SDS011;22752;51.960;5.886;2022-10-17T08:57:53;15.77;;;10.02;;
36799;SDS011;22752;51.960;5.886;2022-10-17T09:00:19;14.73;;;10.70;;
36799;SDS011;22752;51.960;5.886;2022-10-17T09:16:44;12.73;;;9.02;;
36799;SDS011;22752;51.960;5.886;2022-10-17T09:19:18;13.45;;;8.65;;
36799;SDS011;22752;51.960;5.886;2022-10-17T09:21:47;16.95;;;9.02;;
36799;SDS011;22752;51.960;5.886;2022-10-17T09:24:27;11.60;;;8.60;;
36799;SDS011;22752;51.960;5.886;2022-10-17T09:26:59;12.63;;;8.60;;
36799;SDS011;22752;51.960;5.886;2022-10-17T09:29:25;16.40;;;9.55;;
36799;SDS011;22752;51.960;5.886;2022-10-17T09:32:01;11.18;;;8.50;;
36799;SDS011;22752;51.960;5.886;2022-10-17T09:34:35;13.82;;;9.52;;
36799;SDS011;22752;51.960;5.886;2022-10-17T09:37:00;13.70;;;9.13;;
36799;SDS011;22752;51.960;5.886;2022-10-17T09:39:26;11.05;;;8.93;;
36799;SDS011;22752;51.960;5.886;2022-10-17T09:41:57;10.48;;;7.88;;
36799;SDS011;22752;51.960;5.886;2022-10-17T09:47:40;17.55;;;9.13;;
36799;SDS011;22752;51.960;5.886;2022-10-17T09:50:13;11.48;;;8.55;;
36799;SDS011;22752;51.960;5.886;2022-10-17T09:52:45;14.77;;;9.27;;
36799;SDS011;22752;51.960;5.886;2022-10-17T09:57:56;14.32;;;10.00;;
36799;SDS011;22752;51.960;5.886;2022-10-17T10:00:28;10.35;;;8.40;;
36799;SDS011;22752;51.960;5.886;2022-10-17T10:03:15;12.13;;;8.85;;
36799;SDS011;22752;51.960;5.886;2022-10-17T10:08:47;12.55;;;9.10;;
36799;SDS011;22752;51.960;5.886;2022-10-17T10:12:04;14.47;;;8.73;;
36799;SDS011;22752;51.960;5.886;2022-10-17T10:14:31;11.05;;;9.13;;
36799;SDS011;22752;51.960;5.886;2022-10-17T10:16:58;11.88;;;8.98;;
36799;SDS011;22752;51.960;5.886;2022-10-17T10:21:56;13.25;;;8.85;;
36799;SDS011;22752;51.960;5.886;2022-10-17T10:24:22;14.48;;;9.15;;
36799;SDS011;22752;51.960;5.886;2022-10-17T10:26:50;13.52;;;8.05;;
36799;SDS011;22752;51.960;5.886;2022-10-17T10:31:44;11.15;;;8.40;;
36799;SDS011;22752;51.960;5.886;2022-10-17T10:34:15;11.38;;;7.50;;
36799;SDS011;22752;51.960;5.886;2022-10-17T10:36:46;16.80;;;7.07;;
36799;SDS011;22752;51.960;5.886;2022-10-17T10:39:26;11.57;;;7.95;;
36799;SDS011;22752;51.960;5.886;2022-10-17T10:41:59;11.18;;;7.38;;
36799;SDS011;22752;51.960;5.886;2022-10-17T10:44:28;10.30;;;7.93;;
36799;SDS011;22752;51.960;5.886;2022-10-17T10:50:15;12.18;;;7.75;;
36799;SDS011;22752;51.960;5.886;2022-10-17T10:55:48;13.68;;;8.63;;
36799;SDS011;22752;51.960;5.886;2022-10-17T10:58:28;13.18;;;8.70;;
36799;SDS011;22752;51.960;5.886;2022-10-17T11:01:05;11.48;;;7.95;;
36799;SDS011;22752;51.960;5.886;2022-10-17T11:06:11;15.75;;;8.75;;
36799;SDS011;22752;51.960;5.886;2022-10-17T11:08:47;10.75;;;7.55;;
36799;SDS011;22752;51.960;5.886;2022-10-17T11:19:27;8.77;;;6.60;;
36799;SDS011;22752;51.960;5.886;2022-10-17T11:22:14;9.98;;;7.82;;
36799;SDS011;22752;51.960;5.886;2022-10-17T11:27:37;14.20;;;8.30;;
36799;SDS011;22752;51.960;5.886;2022-10-17T11:30:03;10.15;;;7.63;;
36799;SDS011;22752;51.960;5.886;2022-10-17T11:32:31;10.88;;;7.45;;
36799;SDS011;22752;51.960;5.886;2022-10-17T11:35:32;8.10;;;7.18;;
36799;SDS011;22752;51.960;5.886;2022-10-17T11:38:11;10.25;;;7.82;;
36799;SDS011;22752;51.960;5.886;2022-10-17T11:40:59;11.80;;;7.97;;
36799;SDS011;22752;51.960;5.886;2022-10-17T11:45:57;12.55;;;9.25;;
36799;SDS011;22752;51.960;5.886;2022-10-17T11:48:33;10.65;;;8.27;;
36799;SDS011;22752;51.960;5.886;2022-10-17T11:51:08;12.02;;;9.15;;
36799;SDS011;22752;51.960;5.886;2022-10-17T11:53:43;14.38;;;9.13;;
36799;SDS011;22752;51.960;5.886;2022-10-17T11:56:20;13.10;;;10.57;;
36799;SDS011;22752;51.960;5.886;2022-10-17T12:01:47;15.85;;;9.77;;
36799;SDS011;22752;51.960;5.886;2022-10-17T12:04:34;11.73;;;10.10;;
36799;SDS011;22752;51.960;5.886;2022-10-17T12:07:12;17.00;;;10.35;;
36799;SDS011;22752;51.960;5.886;2022-10-17T12:09:58;12.10;;;8.75;;
36799;SDS011;22752;51.960;5.886;2022-10-17T12:12:39;15.52;;;9.48;;
36799;SDS011;22752;51.960;5.886;2022-10-17T12:20:26;17.88;;;10.57;;
36799;SDS011;22752;51.960;5.886;2022-10-17T12:23:01;12.80;;;9.52;;
36799;SDS011;22752;51.960;5.886;2022-10-17T12:25:37;11.07;;;9.30;;
36799;SDS011;22752;51.960;5.886;2022-10-17T12:30:56;13.63;;;10.00;;
36799;SDS011;22752;51.960;5.886;2022-10-17T12:38:46;15.43;;;10.90;;
36799;SDS011;22752;51.960;5.886;2022-10-17T12:41:13;14.40;;;11.88;;
36799;SDS011;22752;51.960;5.886;2022-10-17T12:46:09;14.38;;;10.85;;
36799;SDS011;22752;51.960;5.886;2022-10-17T12:56:19;12.68;;;10.13;;
36799;SDS011;22752;51.960;5.886;2022-10-17T12:58:53;11.35;;;9.55;;
36799;SDS011;22752;51.960;5.886;2022-10-17T13:01:27;15.02;;;11.13;;
36799;SDS011;22752;51.960;5.886;2022-10-17T13:03:55;14.98;;;11.20;;
36799;SDS011;22752;51.960;5.886;2022-10-17T13:06:29;13.95;;;9.75;;
36799;SDS011;22752;51.960;5.886;2022-10-17T13:08:57;13.43;;;10.65;;
36799;SDS011;22752;51.960;5.886;2022-10-17T13:11:35;13.75;;;10.45;;
36799;SDS011;22752;51.960;5.886;2022-10-17T13:14:07;16.67;;;12.02;;
36799;SDS011;22752;51.960;5.886;2022-10-17T13:16:40;19.88;;;10.65;;
36799;SDS011;22752;51.960;5.886;2022-10-17T13:19:17;14.55;;;10.15;;
36799;SDS011;22752;51.960;5.886;2022-10-17T13:21:58;13.48;;;10.13;;
36799;SDS011;22752;51.960;5.886;2022-10-17T13:24:28;15.57;;;10.85;;
36799;SDS011;22752;51.960;5.886;2022-10-17T13:26:56;14.32;;;11.13;;
36799;SDS011;22752;51.960;5.886;2022-10-17T13:29:22;15.98;;;12.68;;
36799;SDS011;22752;51.960;5.886;2022-10-17T13:31:50;12.10;;;9.90;;
36799;SDS011;22752;51.960;5.886;2022-10-17T13:34:22;15.00;;;11.20;;
36799;SDS011;22752;51.960;5.886;2022-10-17T13:39:41;13.85;;;10.18;;
36799;SDS011;22752;51.960;5.886;2022-10-17T13:42:21;13.02;;;9.98;;
36799;SDS011;22752;51.960;5.886;2022-10-17T13:44:50;11.70;;;9.30;;
36799;SDS011;22752;51.960;5.886;2022-10-17T13:47:20;11.95;;;9.50;;
36799;SDS011;22752;51.960;5.886;2022-10-17T13:49:54;14.80;;;9.93;;
36799;SDS011;22752;51.960;5.886;2022-10-17T13:52:22;13.38;;;9.85;;
36799;SDS011;22752;51.960;5.886;2022-10-17T13:54:51;12.77;;;10.90;;
36799;SDS011;22752;51.960;5.886;2022-10-17T13:57:22;11.15;;;9.32;;
36799;SDS011;22752;51.960;5.886;2022-10-17T13:59:51;13.25;;;9.73;;
36799;SDS011;22752;51.960;5.886;2022-10-17T14:02:28;10.02;;;8.70;;
36799;SDS011;22752;51.960;5.886;2022-10-17T14:04:59;10.00;;;9.00;;
36799;SDS011;22752;51.960;5.886;2022-10-17T14:07:49;11.88;;;9.05;;
36799;SDS011;22752;51.960;5.886;2022-10-17T14:10:20;14.35;;;10.25;;
36799;SDS011;22752;51.960;5.886;2022-10-17T14:12:48;11.50;;;9.40;;
36799;SDS011;22752;51.960;5.886;2022-10-17T14:15:15;10.30;;;9.25;;
36799;SDS011;22752;51.960;5.886;2022-10-17T14:17:42;10.20;;;8.93;;
36799;SDS011;22752;51.960;5.886;2022-10-17T14:20:17;11.82;;;9.93;;
36799;SDS011;22752;51.960;5.886;2022-10-17T14:22:44;13.75;;;10.10;;
36799;SDS011;22752;51.960;5.886;2022-10-17T14:27:54;14.05;;;12.13;;
36799;SDS011;22752;51.960;5.886;2022-10-17T14:30:31;13.90;;;11.27;;
36799;SDS011;22752;51.960;5.886;2022-10-17T14:33:00;13.85;;;11.02;;
36799;SDS011;22752;51.960;5.886;2022-10-17T14:35:29;13.93;;;12.52;;
36799;SDS011;22752;51.960;5.886;2022-10-17T14:38:04;14.65;;;11.27;;
36799;SDS011;22752;51.960;5.886;2022-10-17T14:40:32;18.50;;;13.05;;
36799;SDS011;22752;51.960;5.886;2022-10-17T14:42:59;13.52;;;12.13;;
36799;SDS011;22752;51.960;5.886;2022-10-17T14:45:32;13.52;;;11.32;;
36799;SDS011;22752;51.960;5.886;2022-10-17T14:48:02;14.38;;;12.10;;
36799;SDS011;22752;51.960;5.886;2022-10-17T14:50:35;17.13;;;12.85;;
36799;SDS011;22752;51.960;5.886;2022-10-17T14:53:02;14.10;;;11.18;;
36799;SDS011;22752;51.960;5.886;2022-10-17T14:55:34;15.52;;;12.98;;
36799;SDS011;22752;51.960;5.886;2022-10-17T14:58:00;13.93;;;11.80;;
36799;SDS011;22752;51.960;5.886;2022-10-17T15:00:39;12.38;;;10.15;;
36799;SDS011;22752;51.960;5.886;2022-10-17T15:03:05;14.00;;;11.88;;
36799;SDS011;22752;51.960;5.886;2022-10-17T15:05:30;13.90;;;11.10;;
36799;SDS011;22752;51.960;5.886;2022-10-17T15:07:56;13.20;;;11.82;;
36799;SDS011;22752;51.960;5.886;2022-10-17T15:10:35;13.35;;;12.05;;
36799;SDS011;22752;51.960;5.886;2022-10-17T15:13:01;13.68;;;11.15;;
36799;SDS011;22752;51.960;5.886;2022-10-17T15:15:28;13.38;;;11.98;;
36799;SDS011;22752;51.960;5.886;2022-10-17T15:17:55;13.70;;;11.25;;
36799;SDS011;22752;51.960;5.886;2022-10-17T15:20:21;15.95;;;13.30;;
36799;SDS011;22752;51.960;5.886;2022-10-17T15:22:50;15.18;;;13.65;;
36799;SDS011;22752;51.960;5.886;2022-10-17T15:25:17;17.70;;;15.23;;
36799;SDS011;22752;51.960;5.886;2022-10-17T15:27:43;14.57;;;12.90;;
36799;SDS011;22752;51.960;5.886;2022-10-17T15:30:28;14.32;;;12.82;;
36799;SDS011;22752;51.960;5.886;2022-10-17T15:32:56;15.82;;;14.02;;
36799;SDS011;22752;51.960;5.886;2022-10-17T15:35:22;13.00;;;11.73;;
36799;SDS011;22752;51.960;5.886;2022-10-17T15:37:49;12.98;;;11.63;;
36799;SDS011;22752;51.960;5.886;2022-10-17T15:42:42;14.95;;;12.82;;
36799;SDS011;22752;51.960;5.886;2022-10-17T15:45:12;15.07;;;13.50;;
36799;SDS011;22752;51.960;5.886;2022-10-17T15:47:42;16.55;;;14.82;;
36799;SDS011;22752;51.960;5.886;2022-10-17T15:50:13;15.45;;;12.02;;
36799;SDS011;22752;51.960;5.886;2022-10-17T15:52:40;14.00;;;12.52;;
36799;SDS011;22752;51.960;5.886;2022-10-17T15:55:06;14.65;;;12.38;;
36799;SDS011;22752;51.960;5.886;2022-10-17T15:57:34;13.52;;;12.13;;
36799;SDS011;22752;51.960;5.886;2022-10-17T16:00:26;13.48;;;12.18;;
36799;SDS011;22752;51.960;5.886;2022-10-17T16:02:51;12.65;;;11.10;;
36799;SDS011;22752;51.960;5.886;2022-10-17T16:05:18;17.52;;;13.27;;
36799;SDS011;22752;51.960;5.886;2022-10-17T16:07:53;14.65;;;13.18;;
36799;SDS011;22752;51.960;5.886;2022-10-17T16:10:19;15.25;;;13.02;;
36799;SDS011;22752;51.960;5.886;2022-10-17T16:12:46;17.98;;;14.32;;
36799;SDS011;22752;51.960;5.886;2022-10-17T16:15:18;21.10;;;14.82;;
36799;SDS011;22752;51.960;5.886;2022-10-17T16:17:49;17.70;;;15.20;;
36799;SDS011;22752;51.960;5.886;2022-10-17T16:20:15;20.08;;;15.32;;
36799;SDS011;22752;51.960;5.886;2022-10-17T16:22:42;19.58;;;16.40;;
36799;SDS011;22752;51.960;5.886;2022-10-17T16:25:16;17.27;;;14.25;;
36799;SDS011;22752;51.960;5.886;2022-10-17T16:27:47;20.20;;;15.68;;
36799;SDS011;22752;51.960;5.886;2022-10-17T16:30:14;17.73;;;15.70;;
36799;SDS011;22752;51.960;5.886;2022-10-17T16:32:40;25.23;;;15.05;;
36799;SDS011;22752;51.960;5.886;2022-10-17T16:35:06;23.67;;;16.42;;
36799;SDS011;22752;51.960;5.886;2022-10-17T16:37:32;17.67;;;14.35;;
36799;SDS011;22752;51.960;5.886;2022-10-17T16:39:59;14.35;;;12.93;;
36799;SDS011;22752;51.960;5.886;2022-10-17T16:42:25;22.48;;;17.15;;
36799;SDS011;22752;51.960;5.886;2022-10-17T16:44:51;20.00;;;17.85;;
36799;SDS011;22752;51.960;5.886;2022-10-17T16:47:17;17.92;;;16.02;;
36799;SDS011;22752;51.960;5.886;2022-10-17T16:49:43;17.63;;;15.32;;